createdAt,value
2019-02-05T00:00:47.938Z,91.10
2019-02-05T00:03:20.491Z,91.00
2019-02-05T00:05:49.283Z,90.90
2019-02-05T00:08:18.671Z,90.90
2019-02-05T00:10:47.940Z,90.90
2019-02-05T00:13:17.278Z,90.90
2019-02-05T00:15:46.245Z,90.90
2019-02-05T00:18:15.294Z,91.00
2019-02-05T00:20:44.124Z,91.10
2019-02-05T00:23:12.797Z,91.20
2019-02-05T00:25:41.558Z,91.40
2019-02-05T00:28:10.495Z,91.40
2019-02-05T00:30:39.322Z,91.30
2019-02-05T00:33:08.059Z,91.30
2019-02-05T00:35:37.050Z,91.40
2019-02-05T00:38:05.895Z,91.30
2019-02-05T00:40:34.802Z,91.10
2019-02-05T00:43:04.098Z,91.10
2019-02-05T00:45:32.873Z,90.90
2019-02-05T00:48:01.558Z,91.10
2019-02-05T00:50:30.383Z,91.00
2019-02-05T00:52:59.078Z,90.80
2019-02-05T00:55:28.254Z,90.80
2019-02-05T00:57:57.363Z,90.70
2019-02-05T01:00:28.410Z,90.60
2019-02-05T01:02:57.755Z,90.60
2019-02-05T01:05:26.643Z,90.70
2019-02-05T01:07:55.942Z,90.50
2019-02-05T01:10:26.836Z,90.50
2019-02-05T01:12:56.455Z,90.30
2019-02-05T01:15:26.399Z,90.40
2019-02-05T01:17:55.166Z,90.20
2019-02-05T01:20:24.202Z,90.10
2019-02-05T01:22:52.907Z,90.00
2019-02-05T01:25:22.071Z,90.00
2019-02-05T01:27:52.798Z,89.90
2019-02-05T01:30:23.696Z,89.90
2019-02-05T01:32:52.841Z,89.40
2019-02-05T01:35:22.420Z,89.30
2019-02-05T01:37:51.525Z,89.00
2019-02-05T01:40:21.589Z,88.80
2019-02-05T01:42:50.704Z,88.40
2019-02-05T01:45:20.657Z,89.00
2019-02-05T01:47:50.078Z,88.70
2019-02-05T01:50:21.258Z,88.20
2019-02-05T01:52:50.071Z,88.30
2019-02-05T01:55:19.320Z,88.10
2019-02-05T01:57:48.211Z,88.20
2019-02-05T02:00:20.892Z,87.60
2019-02-05T02:02:50.101Z,87.50
2019-02-05T02:05:18.769Z,87.20
2019-02-05T02:07:47.573Z,87.40
2019-02-05T02:10:19.147Z,87.60
2019-02-05T02:12:47.987Z,87.50
2019-02-05T04:22:49.650Z,83.50
2019-02-05T04:25:33.363Z,83.60
2019-02-05T04:28:14.586Z,83.10
2019-02-05T04:31:24.803Z,83.00
2019-02-05T04:34:35.022Z,83.00
2019-02-05T04:37:35.451Z,83.00
2019-02-05T04:40:27.410Z,83.10
2019-02-05T04:43:35.860Z,84.00
2019-02-05T04:46:19.999Z,85.30
2019-02-05T04:49:11.236Z,87.50
2019-02-05T04:51:57.855Z,88.70
2019-02-05T04:55:23.216Z,89.60
2019-02-05T04:58:28.238Z,89.30
2019-02-05T05:01:27.337Z,90.40
2019-02-05T05:04:39.027Z,91.00
2019-02-05T05:07:42.003Z,91.10
2019-02-05T05:10:10.777Z,90.80
2019-02-05T05:12:39.431Z,91.00
2019-02-05T05:15:10.140Z,91.60
2019-02-05T05:17:38.819Z,90.60
2019-02-05T05:20:09.889Z,91.40
2019-02-05T05:22:38.677Z,90.80
2019-02-05T05:25:10.129Z,91.10
2019-02-05T05:27:38.971Z,90.70
2019-02-05T05:30:11.443Z,90.10
2019-02-05T05:32:40.225Z,89.50
2019-02-05T05:35:09.875Z,90.60
2019-02-05T05:37:39.561Z,90.00
2019-02-05T05:40:08.897Z,89.70
2019-02-05T05:42:37.557Z,89.90
2019-02-05T05:45:08.599Z,89.10
2019-02-05T05:47:37.364Z,90.10
2019-02-05T05:50:09.386Z,89.70
2019-02-05T05:52:38.489Z,89.50
2019-02-05T05:55:07.978Z,89.30
2019-02-05T05:57:36.699Z,89.70
2019-02-05T06:00:07.975Z,89.70
2019-02-05T06:02:39.790Z,88.60
2019-02-05T06:05:07.588Z,88.50
2019-02-05T06:07:36.326Z,88.10
2019-02-05T06:10:07.131Z,88.30
2019-02-05T06:12:36.401Z,88.60
2019-02-05T06:15:06.231Z,88.60
2019-02-05T06:17:34.994Z,88.00
2019-02-05T06:20:04.417Z,87.30
2019-02-05T06:22:33.345Z,87.60
2019-02-05T06:25:02.293Z,87.40
2019-02-05T06:27:31.398Z,87.30
2019-02-05T06:30:00.194Z,86.70
2019-02-05T06:32:29.319Z,87.30
2019-02-05T06:34:58.176Z,86.50
2019-02-05T06:37:27.027Z,86.50
2019-02-05T06:39:56.107Z,86.30
2019-02-05T06:42:24.869Z,86.00
2019-02-05T06:44:53.627Z,86.00
2019-02-05T06:47:22.342Z,85.80
2019-02-05T06:49:51.294Z,85.60
2019-02-05T06:52:20.027Z,86.60
2019-02-05T06:54:49.027Z,86.00
2019-02-05T06:57:18.434Z,85.80
2019-02-05T06:59:47.573Z,85.90
2019-02-05T07:02:16.365Z,86.00
2019-02-05T07:04:45.131Z,86.00
2019-02-05T07:07:16.918Z,85.20
2019-02-05T07:09:45.646Z,85.50
2019-02-05T07:12:17.010Z,85.50
2019-02-05T07:14:45.950Z,85.60
2019-02-05T07:17:14.786Z,86.50
2019-02-05T07:19:43.926Z,85.30
2019-02-05T07:22:12.738Z,84.80
2019-02-05T07:24:41.515Z,85.20
2019-02-05T07:27:13.358Z,84.70
2019-02-05T07:29:42.955Z,86.40
2019-02-05T07:32:15.197Z,85.30
2019-02-05T07:34:44.023Z,85.10
2019-02-05T07:37:12.912Z,85.40
2019-02-05T07:39:41.970Z,84.80
2019-02-05T07:42:10.806Z,84.80
2019-02-05T07:44:40.143Z,84.90
2019-02-05T07:47:09.479Z,85.10
2019-02-05T07:49:38.581Z,84.70
2019-02-05T07:52:07.390Z,84.60
2019-02-05T07:54:36.385Z,84.10
2019-02-05T07:57:23.121Z,83.80
2019-02-05T07:59:52.143Z,84.10
2019-02-05T08:02:21.189Z,85.10
2019-02-05T08:04:49.961Z,84.40
2019-02-05T08:07:18.770Z,84.30
2019-02-05T08:09:47.579Z,84.90
2019-02-05T08:12:19.394Z,83.80
2019-02-05T08:14:48.253Z,84.00
2019-02-05T08:17:19.834Z,83.70
2019-02-05T08:19:48.595Z,84.60
2019-02-05T08:22:21.114Z,83.70
2019-02-05T08:24:49.802Z,83.10
2019-02-05T08:27:31.842Z,83.80
2019-02-05T08:30:00.691Z,83.40
2019-02-05T08:32:32.746Z,82.90
2019-02-05T08:35:02.931Z,82.70
2019-02-05T08:37:31.657Z,82.70
2019-02-05T08:40:00.452Z,82.90
2019-02-05T08:42:29.267Z,83.10
2019-02-05T08:44:58.022Z,82.40
2019-02-05T08:47:27.290Z,82.60
2019-02-05T08:49:56.071Z,82.50
2019-02-05T08:52:25.350Z,82.40
2019-02-05T08:54:57.385Z,82.40
2019-02-05T08:57:26.560Z,81.60
2019-02-05T08:59:57.154Z,81.70
2019-02-05T09:02:29.070Z,81.20
2019-02-05T09:04:57.975Z,81.10
2019-02-05T09:07:26.935Z,81.00
2019-02-05T09:09:57.530Z,81.60
2019-02-05T09:12:26.333Z,80.80
2019-02-05T09:14:55.191Z,80.50
2019-02-05T09:17:24.462Z,80.70
2019-02-05T09:19:53.267Z,80.30
2019-02-05T09:22:22.258Z,80.20
2019-02-05T09:24:55.570Z,80.40
2019-02-05T09:27:26.263Z,79.90
2019-02-05T09:29:54.954Z,80.20
2019-02-05T09:32:24.012Z,80.10
2019-02-05T09:34:53.277Z,80.70
2019-02-05T09:37:31.572Z,80.20
2019-02-05T09:40:00.350Z,79.30
2019-02-05T09:42:30.954Z,80.00
2019-02-05T09:45:02.496Z,79.60
2019-02-05T09:47:33.490Z,80.40
2019-02-05T09:50:05.665Z,79.50
2019-02-05T09:52:35.090Z,79.50
2019-02-05T09:55:04.878Z,79.80
2019-02-05T09:57:34.858Z,80.30
2019-02-05T10:00:17.176Z,81.40
2019-02-05T10:02:47.869Z,81.10
2019-02-05T10:05:18.374Z,81.80
2019-02-05T10:07:47.086Z,81.50
2019-02-05T10:10:16.894Z,81.50
2019-02-05T10:12:47.015Z,82.10
2019-02-05T10:15:23.234Z,81.90
2019-02-05T10:17:52.499Z,82.00
2019-02-05T10:20:22.214Z,82.50
2019-02-05T10:22:51.502Z,82.40
2019-02-05T10:25:20.497Z,82.30
2019-02-05T10:27:49.325Z,81.60
2019-02-05T10:30:23.777Z,82.10
2019-02-05T10:32:52.956Z,81.70
2019-02-05T10:35:22.072Z,81.70
2019-02-05T10:37:51.879Z,82.00
2019-02-05T10:40:27.004Z,82.60
2019-02-05T10:42:55.858Z,82.90
2019-02-05T10:45:25.206Z,82.60
2019-02-05T10:47:54.115Z,82.80
2019-02-05T10:50:23.610Z,82.30
2019-02-05T10:52:52.509Z,82.10
2019-02-05T10:55:21.384Z,82.30
2019-02-05T10:57:50.923Z,82.30
2019-02-05T11:00:29.501Z,82.70
2019-02-05T11:03:02.412Z,82.90
2019-02-05T11:05:33.391Z,83.40
2019-02-05T11:08:05.816Z,82.90
2019-02-05T11:10:37.485Z,82.80
2019-02-05T11:13:09.927Z,82.40
2019-02-05T11:15:39.011Z,82.80
2019-02-05T11:18:10.130Z,83.20
2019-02-05T11:20:39.013Z,83.50
2019-02-05T11:23:08.289Z,83.40
2019-02-05T11:25:37.458Z,83.50
2019-02-05T11:28:06.717Z,83.70
2019-02-05T11:30:37.963Z,83.50
2019-02-05T11:33:06.897Z,83.10
2019-02-05T11:35:35.982Z,82.50
2019-02-05T11:38:05.471Z,82.60
2019-02-05T11:40:34.984Z,81.80
2019-02-05T11:43:04.045Z,81.80
2019-02-05T11:45:33.222Z,82.50
2019-02-05T11:48:02.966Z,82.30
2019-02-05T11:50:35.041Z,82.70
2019-02-05T11:53:03.943Z,82.70
2019-02-05T11:55:33.113Z,82.90
2019-02-05T11:58:01.852Z,82.60
2019-02-05T12:00:38.650Z,83.00
2019-02-05T12:03:08.594Z,82.60
2019-02-05T12:05:39.765Z,82.80
2019-02-05T12:08:08.706Z,83.20
2019-02-05T12:10:37.550Z,83.50
2019-02-05T12:13:06.382Z,83.70
2019-02-05T12:15:35.545Z,83.80
2019-02-05T12:18:04.627Z,83.30
2019-02-05T12:20:33.872Z,84.50
2019-02-05T12:23:02.898Z,84.00
2019-02-05T12:25:32.008Z,84.00
2019-02-05T12:28:00.818Z,83.90
2019-02-05T12:30:43.853Z,84.00
2019-02-05T12:33:02.345Z,84.20
2019-02-05T12:35:31.118Z,84.00
2019-02-05T12:38:02.606Z,84.20
2019-02-05T12:40:31.388Z,83.80
2019-02-05T12:43:01.429Z,84.00
2019-02-05T12:45:33.625Z,83.20
2019-02-05T12:48:02.624Z,83.40
2019-02-05T12:50:32.893Z,83.40
2019-02-05T12:53:02.977Z,83.40
2019-02-05T12:55:31.932Z,83.50
2019-02-05T12:58:00.921Z,83.50
2019-02-05T13:00:32.797Z,83.50
2019-02-05T13:03:02.003Z,82.90
2019-02-05T13:05:31.057Z,83.30
2019-02-05T13:08:00.280Z,84.10
2019-02-05T13:10:31.462Z,83.40
2019-02-05T13:13:00.479Z,83.50
2019-02-05T13:15:30.468Z,83.00
2019-02-05T13:17:59.302Z,83.00
2019-02-05T13:20:28.831Z,83.70
2019-02-05T13:22:57.798Z,83.60
2019-02-05T13:25:27.887Z,83.80
2019-02-05T13:27:56.982Z,83.90
2019-02-05T13:30:27.594Z,84.30
2019-02-05T13:32:57.613Z,84.80
2019-02-05T13:35:26.793Z,84.50
2019-02-05T13:37:55.486Z,85.40
2019-02-05T13:40:25.415Z,85.40
2019-02-05T13:42:54.769Z,85.40
2019-02-05T13:45:26.817Z,85.50
2019-02-05T13:47:56.120Z,85.70
2019-02-05T13:50:32.999Z,86.20
2019-02-05T13:52:57.143Z,85.90
2019-02-05T13:55:28.487Z,85.80
2019-02-05T13:57:57.395Z,86.10
2019-02-05T14:00:33.889Z,86.20
2019-02-05T14:03:02.701Z,86.50
2019-02-05T14:05:31.698Z,86.50
2019-02-05T14:08:00.455Z,86.60
2019-02-05T14:10:31.286Z,86.60
2019-02-05T14:13:00.146Z,86.70
2019-02-05T14:15:31.367Z,86.60
2019-02-05T14:18:00.194Z,86.80
2019-02-05T14:20:28.859Z,87.00
2019-02-05T14:22:57.607Z,87.10
2019-02-05T14:25:26.684Z,86.90
2019-02-05T14:27:57.658Z,86.70
2019-02-05T14:30:29.481Z,87.10
2019-02-05T14:32:58.615Z,86.90
2019-02-05T14:35:27.338Z,86.90
2019-02-05T14:37:56.105Z,87.00
2019-02-05T14:40:24.958Z,86.90
2019-02-05T14:42:53.878Z,86.80
2019-02-05T14:45:22.870Z,87.10
2019-02-05T14:47:52.578Z,87.00
2019-02-05T14:50:23.728Z,87.50
2019-02-05T14:52:52.716Z,87.60
2019-02-05T14:55:21.382Z,88.10
2019-02-05T14:57:50.066Z,87.90
2019-02-05T15:00:30.049Z,88.20
2019-02-05T15:03:02.018Z,88.00
2019-02-05T15:05:30.067Z,88.10
2019-02-05T15:07:58.902Z,87.80
2019-02-05T15:10:27.794Z,87.80
2019-02-05T15:12:56.552Z,87.90
2019-02-05T15:15:25.343Z,87.80
2019-02-05T15:17:54.013Z,88.10
2019-02-05T15:20:33.087Z,87.90
2019-02-05T15:23:12.842Z,88.10
2019-02-05T15:25:42.035Z,87.90
2019-02-05T15:28:32.908Z,88.30
2019-02-05T15:31:01.681Z,88.10
2019-02-05T15:33:50.184Z,88.30
2019-02-05T15:36:36.170Z,88.60
2019-02-05T15:39:11.976Z,88.50
2019-02-05T15:41:40.695Z,88.90
2019-02-05T15:44:09.430Z,89.00
2019-02-05T15:46:38.159Z,89.30
2019-02-05T15:49:09.634Z,89.60
2019-02-05T15:51:38.312Z,89.50
2019-02-05T15:54:07.506Z,89.60
2019-02-05T15:56:36.221Z,89.80
2019-02-05T15:59:05.154Z,90.00
2019-02-05T16:01:33.828Z,89.80
2019-02-05T16:04:03.008Z,89.80
2019-02-05T16:06:32.106Z,89.90
2019-02-05T16:09:00.914Z,89.80
2019-02-05T16:11:29.656Z,89.60
2019-02-05T16:13:58.354Z,89.70
2019-02-05T16:16:27.406Z,89.70
2019-02-05T16:18:56.146Z,89.90
2019-02-05T16:21:24.964Z,89.80
2019-02-05T16:23:53.901Z,89.70
2019-02-05T16:26:22.684Z,90.00
2019-02-05T16:28:51.399Z,89.90
2019-02-05T16:31:20.424Z,89.80
2019-02-05T16:33:49.341Z,90.00
2019-02-05T16:36:18.104Z,90.00
2019-02-05T16:38:47.097Z,90.00
2019-02-05T16:41:15.763Z,90.20
2019-02-05T16:43:45.007Z,90.20
2019-02-05T16:46:13.697Z,90.30
2019-02-05T16:48:42.375Z,90.20
2019-02-05T16:51:11.531Z,90.40
2019-02-05T16:53:40.331Z,90.40
2019-02-05T16:56:09.503Z,90.20
2019-02-05T16:58:38.454Z,90.30
2019-02-05T17:01:07.694Z,90.40
2019-02-05T17:03:36.635Z,90.40
2019-02-05T17:06:06.369Z,90.30
2019-02-05T17:08:35.157Z,90.30
2019-02-05T17:11:05.226Z,90.20
2019-02-05T17:13:34.824Z,90.10
2019-02-05T17:16:03.732Z,90.30
2019-02-05T17:18:32.661Z,90.30
2019-02-05T17:21:01.410Z,90.30
2019-02-05T17:23:33.252Z,90.10
2019-02-05T17:26:02.016Z,90.20
2019-02-05T17:28:32.262Z,90.10
2019-02-05T17:31:00.931Z,90.10
2019-02-05T17:33:30.350Z,90.20
2019-02-05T17:35:59.030Z,90.20
2019-02-05T17:38:27.770Z,90.10
2019-02-05T17:40:56.567Z,90.00
2019-02-05T17:43:27.758Z,90.10
2019-02-05T17:45:56.514Z,90.10
2019-02-05T17:48:25.627Z,90.20
2019-02-05T17:50:55.878Z,90.20
2019-02-05T17:53:24.870Z,90.00
2019-02-05T17:55:53.894Z,89.90
2019-02-05T17:58:22.610Z,89.90
2019-02-05T18:00:54.890Z,89.80
2019-02-05T18:03:24.026Z,90.00
2019-02-05T18:05:52.718Z,90.00
2019-02-05T18:08:21.466Z,90.00
2019-02-05T18:10:50.530Z,89.90
2019-02-05T18:13:19.432Z,90.00
2019-02-05T18:15:48.170Z,90.10
2019-02-05T18:18:17.246Z,90.10
2019-02-05T18:20:46.736Z,90.10
2019-02-05T18:23:15.427Z,90.10
2019-02-05T18:25:44.175Z,90.20
2019-02-05T18:28:13.365Z,90.10
2019-02-05T18:30:42.154Z,90.10
2019-02-05T18:33:11.392Z,90.50
2019-02-05T18:35:40.147Z,90.20
2019-02-05T18:38:11.009Z,90.20
2019-02-05T18:40:39.771Z,90.20
2019-02-05T18:43:08.671Z,90.20
2019-02-05T18:45:37.675Z,90.10
2019-02-05T18:48:06.794Z,90.10
2019-02-05T18:50:35.486Z,90.20
2019-02-05T18:53:04.436Z,90.30
2019-02-05T18:55:33.773Z,90.20
2019-02-05T18:58:09.484Z,90.10
2019-02-05T19:00:41.024Z,90.20
2019-02-05T19:03:15.563Z,90.20
2019-02-05T19:05:40.894Z,90.10
2019-02-05T19:08:16.300Z,90.10
2019-02-05T19:10:43.929Z,90.10
2019-02-05T19:13:13.011Z,90.10
2019-02-05T19:15:42.202Z,90.00
2019-02-05T19:18:11.064Z,90.20
2019-02-05T19:20:40.235Z,90.30
2019-02-05T19:23:10.014Z,90.20
2019-02-05T19:25:46.932Z,90.20
2019-02-05T19:28:23.087Z,90.10
2019-02-05T19:30:52.958Z,90.10
2019-02-05T19:33:27.187Z,90.20
2019-02-05T19:35:53.161Z,90.10
2019-02-05T19:38:21.918Z,90.20
2019-02-05T19:40:57.733Z,90.30
2019-02-05T19:43:23.456Z,90.30
2019-02-05T19:46:13.885Z,90.10
2019-02-05T19:48:49.091Z,90.10
2019-02-05T19:51:18.099Z,90.10
2019-02-05T19:53:46.827Z,90.40
2019-02-05T19:56:15.534Z,90.40
2019-02-05T19:58:45.285Z,90.30
2019-02-05T20:01:14.116Z,90.30
2019-02-05T20:03:42.864Z,90.20
2019-02-05T20:06:11.648Z,90.00
2019-02-05T20:08:40.613Z,89.90
2019-02-05T20:11:09.664Z,90.00
2019-02-05T20:13:40.590Z,90.10
2019-02-05T20:16:09.543Z,90.00
2019-02-05T20:18:38.627Z,90.00
2019-02-05T20:21:07.652Z,90.00
2019-02-05T20:23:36.386Z,89.90
2019-02-05T20:26:05.390Z,89.80
2019-02-05T20:28:34.438Z,89.90
2019-02-05T20:31:03.138Z,89.80
2019-02-05T20:33:32.171Z,89.80
2019-02-05T20:36:00.857Z,89.60
2019-02-05T20:38:30.879Z,89.70
2019-02-05T20:40:59.750Z,89.80
2019-02-05T20:43:28.563Z,90.00
2019-02-05T20:45:59.775Z,89.80
2019-02-05T20:48:29.746Z,89.60
2019-02-05T20:51:00.970Z,89.70
2019-02-05T20:53:29.336Z,89.70
2019-02-05T20:56:00.018Z,89.20
2019-02-05T20:58:29.105Z,89.30
2019-02-05T21:00:58.059Z,89.40
2019-02-05T21:03:26.814Z,89.20
2019-02-05T21:05:55.503Z,89.20
2019-02-05T21:08:24.622Z,89.20
2019-02-05T21:10:54.167Z,89.30
2019-02-05T21:13:23.364Z,89.20
2019-02-05T21:15:52.233Z,89.50
2019-02-05T21:18:21.344Z,89.20
2019-02-05T21:20:50.530Z,89.30
2019-02-05T21:23:19.170Z,89.00
2019-02-05T21:25:47.870Z,89.10
2019-02-05T21:28:16.753Z,89.10
2019-02-05T21:30:45.495Z,89.00
2019-02-05T21:33:14.302Z,89.30
2019-02-05T21:35:43.585Z,89.20
2019-02-05T21:38:12.616Z,89.30
2019-02-05T21:40:41.426Z,89.70
2019-02-05T21:43:11.533Z,89.60
2019-02-05T21:45:43.657Z,89.50
2019-02-05T21:48:12.382Z,89.40
2019-02-05T21:50:43.650Z,89.30
2019-02-05T21:53:12.591Z,89.00
2019-02-05T21:55:41.266Z,89.20
2019-02-05T21:58:12.458Z,88.90
2019-02-05T22:00:40.480Z,89.30
2019-02-05T22:03:10.069Z,89.00
2019-02-05T22:05:38.878Z,88.80
2019-02-05T22:08:08.836Z,88.80
2019-02-05T22:10:37.849Z,88.50
2019-02-05T22:13:07.294Z,89.00
2019-02-05T22:15:36.090Z,89.20
2019-02-05T22:18:05.347Z,88.30
2019-02-05T22:20:34.419Z,88.50
2019-02-05T22:23:03.531Z,88.70
2019-02-05T22:25:32.512Z,88.10
2019-02-05T22:28:01.406Z,87.90
2019-02-05T22:30:32.129Z,87.90
2019-02-05T22:33:01.468Z,87.70
2019-02-05T22:35:30.377Z,88.00
2019-02-05T22:37:59.074Z,88.20
2019-02-05T22:40:28.255Z,88.30
2019-02-05T22:42:57.334Z,88.30
2019-02-05T22:45:28.635Z,88.40
2019-02-05T22:47:57.468Z,88.00
2019-02-05T22:50:28.382Z,88.20
2019-02-05T22:52:57.603Z,88.10
2019-02-05T22:55:26.567Z,88.20
2019-02-05T22:57:55.204Z,88.10
2019-02-05T23:00:42.686Z,88.00
2019-02-05T23:03:12.046Z,88.10
2019-02-05T23:06:20.697Z,87.90
2019-02-05T23:08:49.653Z,88.20
2019-02-05T23:11:33.502Z,88.10
2019-02-05T23:14:02.642Z,87.90
2019-02-05T23:16:31.557Z,87.90
2019-02-05T23:19:00.526Z,88.20
2019-02-05T23:21:29.553Z,87.90
2019-02-05T23:23:58.588Z,87.90
2019-02-05T23:26:27.422Z,87.80
2019-02-05T23:28:56.084Z,87.50
2019-02-05T23:31:24.768Z,87.50
2019-02-05T23:33:53.453Z,87.50
2019-02-05T23:36:22.407Z,87.60
2019-02-05T23:38:51.058Z,87.50
2019-02-05T23:41:19.765Z,87.60
2019-02-05T23:43:48.767Z,87.70
2019-02-05T23:46:17.465Z,87.90
2019-02-05T23:48:46.195Z,87.70
2019-02-05T23:51:14.896Z,87.80
2019-02-05T23:53:43.614Z,87.80
2019-02-05T23:56:23.833Z,87.60
2019-02-05T23:58:43.972Z,87.60
